createdAt,value
2018-05-31T00:00:36.752Z,19.70
2018-05-31T00:03:02.494Z,19.66
2018-05-31T00:05:28.241Z,19.52
2018-05-31T00:07:53.993Z,19.44
2018-05-31T00:10:19.752Z,19.29
2018-05-31T00:12:45.485Z,19.27
2018-05-31T00:15:11.224Z,19.09
2018-05-31T00:17:36.977Z,18.89
2018-05-31T00:20:02.741Z,18.92
2018-05-31T00:22:28.468Z,18.88
2018-05-31T00:24:54.226Z,18.92
2018-05-31T00:27:19.948Z,18.86
2018-05-31T00:29:45.716Z,18.77
2018-05-31T00:32:11.456Z,18.65
2018-05-31T00:34:37.204Z,18.55
2018-05-31T00:37:02.948Z,18.44
2018-05-31T00:39:28.680Z,18.37
2018-05-31T00:41:54.422Z,18.26
2018-05-31T00:44:20.156Z,18.14
2018-05-31T00:46:45.895Z,18.10
2018-05-31T00:49:11.639Z,18.02
2018-05-31T00:51:37.381Z,17.96
2018-05-31T00:54:03.123Z,18.04
2018-05-31T00:56:28.860Z,17.99
2018-05-31T00:58:54.588Z,17.96
2018-05-31T01:01:20.332Z,17.88
2018-05-31T01:03:46.073Z,17.78
2018-05-31T01:06:11.820Z,17.69
2018-05-31T01:08:37.558Z,17.62
2018-05-31T01:11:04.104Z,17.52
2018-05-31T01:13:29.847Z,17.49
2018-05-31T01:15:55.594Z,17.44
2018-05-31T01:18:21.327Z,17.35
2018-05-31T01:20:47.084Z,17.30
2018-05-31T01:23:12.825Z,17.27
2018-05-31T01:25:38.575Z,17.31
2018-05-31T01:28:04.309Z,17.41
2018-05-31T01:30:30.048Z,17.20
2018-05-31T01:32:55.773Z,17.14
2018-05-31T01:35:21.530Z,17.00
2018-05-31T01:37:47.269Z,16.87
2018-05-31T01:40:13.012Z,16.81
2018-05-31T01:42:38.735Z,16.80
2018-05-31T01:45:04.484Z,16.74
2018-05-31T01:47:30.224Z,16.70
2018-05-31T01:49:55.961Z,16.64
2018-05-31T01:52:21.708Z,16.63
2018-05-31T01:54:47.450Z,16.64
2018-05-31T01:57:13.200Z,16.55
2018-05-31T01:59:38.939Z,16.54
2018-05-31T02:02:04.705Z,16.49
2018-05-31T02:04:30.448Z,16.45
2018-05-31T02:06:56.190Z,16.41
2018-05-31T02:09:21.931Z,16.39
2018-05-31T02:11:47.717Z,16.34
2018-05-31T02:14:13.457Z,16.32
2018-05-31T02:16:39.216Z,16.28
2018-05-31T02:19:04.981Z,16.28
2018-05-31T02:21:30.716Z,16.21
2018-05-31T02:23:56.456Z,16.24
2018-05-31T02:26:22.208Z,16.38
2018-05-31T02:28:47.948Z,16.60
2018-05-31T02:31:13.692Z,16.27
2018-05-31T02:33:39.425Z,16.60
2018-05-31T02:36:05.180Z,16.41
2018-05-31T02:38:30.920Z,16.31
2018-05-31T02:40:56.656Z,16.43
2018-05-31T02:43:22.401Z,16.45
2018-05-31T02:45:48.295Z,15.99
2018-05-31T02:48:14.021Z,15.88
2018-05-31T02:50:39.772Z,15.93
2018-05-31T02:53:06.002Z,15.88
2018-05-31T02:55:33.128Z,15.91
2018-05-31T02:57:58.913Z,15.90
2018-05-31T03:00:24.640Z,15.93
2018-05-31T03:02:50.385Z,15.95
2018-05-31T03:05:16.120Z,15.94
2018-05-31T03:07:41.910Z,15.97
2018-05-31T03:10:07.627Z,16.01
2018-05-31T03:12:33.377Z,16.09
2018-05-31T03:14:59.106Z,16.22
2018-05-31T03:17:24.860Z,16.25
2018-05-31T03:19:50.600Z,16.28
2018-05-31T03:22:16.333Z,16.28
2018-05-31T03:24:42.072Z,15.97
2018-05-31T03:27:07.807Z,16.02
2018-05-31T03:29:33.524Z,15.97
2018-05-31T03:31:59.287Z,15.99
2018-05-31T03:34:25.018Z,16.09
2018-05-31T03:36:50.762Z,16.25
2018-05-31T03:39:16.482Z,16.21
2018-05-31T03:41:42.237Z,16.22
2018-05-31T03:44:07.969Z,16.18
2018-05-31T03:46:33.704Z,16.23
2018-05-31T03:48:59.435Z,16.17
2018-05-31T03:51:25.184Z,16.14
2018-05-31T03:53:50.904Z,16.17
2018-05-31T03:56:16.656Z,16.13
2018-05-31T03:58:42.390Z,16.22
2018-05-31T04:01:08.132Z,16.28
2018-05-31T04:03:33.856Z,16.26
2018-05-31T04:05:59.603Z,16.31
2018-05-31T04:08:25.328Z,16.37
2018-05-31T04:10:51.549Z,16.54
2018-05-31T04:13:17.311Z,16.51
2018-05-31T04:15:43.045Z,16.57
2018-05-31T04:18:08.787Z,16.66
2018-05-31T04:20:34.515Z,16.63
2018-05-31T04:23:00.261Z,16.66
2018-05-31T04:25:25.996Z,16.83
2018-05-31T04:27:51.743Z,16.84
2018-05-31T04:30:17.464Z,16.93
2018-05-31T04:32:43.203Z,16.91
2018-05-31T04:35:08.932Z,16.90
2018-05-31T04:37:34.663Z,17.00
2018-05-31T04:40:00.388Z,17.10
2018-05-31T04:42:26.170Z,17.05
2018-05-31T04:44:51.863Z,17.18
2018-05-31T04:47:17.617Z,17.34
2018-05-31T04:49:43.336Z,17.47
2018-05-31T04:52:09.075Z,17.50
2018-05-31T04:54:34.799Z,17.53
2018-05-31T04:57:01.564Z,17.68
2018-05-31T04:59:27.298Z,17.80
2018-05-31T05:01:53.034Z,17.91
2018-05-31T05:04:18.765Z,17.68
2018-05-31T05:06:44.525Z,17.71
2018-05-31T05:09:10.269Z,17.87
2018-05-31T05:11:35.997Z,17.92
2018-05-31T05:14:01.735Z,18.09
2018-05-31T05:16:27.456Z,18.13
2018-05-31T05:18:53.211Z,18.21
2018-05-31T05:21:18.933Z,18.26
2018-05-31T05:23:44.680Z,18.50
2018-05-31T05:26:10.428Z,18.56
2018-05-31T05:28:36.171Z,18.59
2018-05-31T05:31:01.922Z,18.67
2018-05-31T05:33:27.659Z,18.62
2018-05-31T05:35:53.397Z,18.70
2018-05-31T05:38:19.143Z,18.89
2018-05-31T05:40:44.885Z,19.12
2018-05-31T05:43:10.633Z,19.14
2018-05-31T05:45:36.376Z,19.34
2018-05-31T05:48:02.130Z,19.47
2018-05-31T05:50:27.851Z,19.40
2018-05-31T05:52:53.611Z,19.53
2018-05-31T05:55:19.361Z,19.81
2018-05-31T05:57:45.104Z,19.16
2018-05-31T06:00:10.844Z,19.62
2018-05-31T06:02:36.601Z,19.84
2018-05-31T06:05:02.340Z,19.63
2018-05-31T06:07:28.075Z,19.96
2018-05-31T06:09:53.878Z,19.59
2018-05-31T06:12:19.561Z,19.89
2018-05-31T06:14:45.308Z,20.01
2018-05-31T06:17:11.053Z,20.37
2018-05-31T06:19:36.813Z,20.68
2018-05-31T06:22:02.560Z,20.19
2018-05-31T06:24:28.295Z,20.34
2018-05-31T06:26:54.022Z,20.52
2018-05-31T06:29:19.776Z,20.38
2018-05-31T06:31:45.521Z,20.36
2018-05-31T06:34:11.263Z,20.69
2018-05-31T06:36:37.004Z,20.80
2018-05-31T06:39:02.760Z,20.73
2018-05-31T06:41:28.488Z,21.09
2018-05-31T06:43:54.225Z,20.78
2018-05-31T06:46:19.964Z,20.83
2018-05-31T06:48:45.706Z,21.33
2018-05-31T06:51:11.431Z,21.12
2018-05-31T06:53:37.184Z,21.30
2018-05-31T06:56:02.916Z,21.73
2018-05-31T06:58:28.699Z,21.21
2018-05-31T07:00:54.467Z,21.56
2018-05-31T07:03:20.198Z,21.76
2018-05-31T07:05:45.925Z,21.94
2018-05-31T07:08:11.670Z,22.22
2018-05-31T07:10:37.418Z,22.53
2018-05-31T07:13:03.149Z,22.67
2018-05-31T07:15:28.888Z,22.74
2018-05-31T07:17:54.604Z,23.53
2018-05-31T07:20:20.362Z,23.02
2018-05-31T07:22:46.091Z,23.24
2018-05-31T07:25:11.842Z,23.66
2018-05-31T07:27:37.597Z,24.13
2018-05-31T07:30:03.341Z,23.97
2018-05-31T07:32:29.080Z,23.79
2018-05-31T07:34:54.824Z,24.33
2018-05-31T07:37:20.587Z,24.45
2018-05-31T07:39:46.336Z,24.65
2018-05-31T07:42:12.077Z,24.38
2018-05-31T07:44:37.821Z,24.05
2018-05-31T07:47:03.560Z,23.41
2018-05-31T07:49:29.298Z,24.74
2018-05-31T07:51:55.037Z,25.23
2018-05-31T07:54:20.789Z,25.25
2018-05-31T07:56:46.529Z,24.67
2018-05-31T07:59:12.284Z,24.09
2018-05-31T08:01:38.016Z,24.82
2018-05-31T08:04:03.764Z,25.13
2018-05-31T08:06:29.513Z,25.89
2018-05-31T08:08:55.276Z,26.22
2018-05-31T08:11:21.072Z,25.81
2018-05-31T08:13:46.826Z,25.67
2018-05-31T08:16:12.548Z,25.99
2018-05-31T08:18:38.290Z,26.46
2018-05-31T08:21:04.045Z,26.24
2018-05-31T08:23:29.780Z,25.97
2018-05-31T08:25:55.515Z,25.22
2018-05-31T08:28:21.239Z,24.69
2018-05-31T08:30:46.972Z,24.69
2018-05-31T08:33:12.700Z,25.80
2018-05-31T08:35:38.432Z,25.26
2018-05-31T08:38:10.306Z,25.99
2018-05-31T08:40:36.354Z,26.03
2018-05-31T08:43:02.068Z,25.02
2018-05-31T08:45:27.809Z,25.07
2018-05-31T08:47:53.547Z,26.29
2018-05-31T08:50:19.294Z,26.94
2018-05-31T08:52:45.030Z,26.96
2018-05-31T08:55:10.767Z,27.76
2018-05-31T08:57:36.508Z,27.81
2018-05-31T09:00:02.256Z,27.99
2018-05-31T09:02:27.985Z,27.62
2018-05-31T09:04:53.728Z,27.20
2018-05-31T09:07:19.451Z,27.14
2018-05-31T09:09:45.209Z,27.50
2018-05-31T09:12:10.958Z,27.31
2018-05-31T09:14:36.701Z,27.95
2018-05-31T09:17:02.420Z,27.18
2018-05-31T09:19:28.156Z,27.24
2018-05-31T09:21:53.883Z,27.84
2018-05-31T09:24:19.651Z,27.83
2018-05-31T09:26:45.391Z,27.07
2018-05-31T09:29:11.127Z,27.72
2018-05-31T09:31:36.865Z,28.99
2018-05-31T09:34:02.604Z,28.25
2018-05-31T09:36:28.348Z,29.44
2018-05-31T09:38:54.064Z,29.36
2018-05-31T09:41:19.815Z,28.54
2018-05-31T09:43:45.541Z,26.92
2018-05-31T09:46:11.276Z,27.42
2018-05-31T09:48:37.020Z,28.61
2018-05-31T09:51:02.771Z,29.03
2018-05-31T09:53:28.521Z,28.48
2018-05-31T09:55:54.261Z,29.49
2018-05-31T09:58:19.999Z,28.44
2018-05-31T10:00:45.741Z,29.02
2018-05-31T10:03:11.483Z,29.09
2018-05-31T10:05:37.222Z,29.60
2018-05-31T10:08:02.968Z,29.64
2018-05-31T10:10:28.709Z,28.96
2018-05-31T10:12:54.444Z,29.46
2018-05-31T10:15:20.227Z,29.16
2018-05-31T10:17:45.964Z,29.34
2018-05-31T10:20:11.721Z,29.81
2018-05-31T10:22:37.453Z,29.69
2018-05-31T10:25:03.216Z,30.52
2018-05-31T10:27:28.959Z,29.86
2018-05-31T10:29:54.707Z,29.61
2018-05-31T10:32:20.435Z,29.02
2018-05-31T10:34:46.149Z,29.95
2018-05-31T10:37:11.893Z,29.98
2018-05-31T10:39:37.620Z,29.73
2018-05-31T10:42:03.384Z,29.26
2018-05-31T10:44:29.126Z,29.18
2018-05-31T10:46:54.919Z,30.36
2018-05-31T10:49:20.591Z,29.89
2018-05-31T10:51:46.345Z,29.75
2018-05-31T10:54:12.096Z,29.60
2018-05-31T10:56:37.841Z,29.23
2018-05-31T10:59:03.591Z,29.02
2018-05-31T11:01:29.342Z,30.30
2018-05-31T11:03:55.069Z,29.59
2018-05-31T11:06:20.819Z,29.34
2018-05-31T11:08:46.557Z,29.85
2018-05-31T11:11:12.289Z,30.00
2018-05-31T11:13:38.008Z,30.39
2018-05-31T11:16:03.740Z,30.17
2018-05-31T11:18:29.458Z,30.82
2018-05-31T11:20:55.192Z,30.64
2018-05-31T11:23:20.909Z,30.05
2018-05-31T11:25:46.637Z,30.47
2018-05-31T11:28:12.351Z,30.86
2018-05-31T11:30:38.072Z,30.29
2018-05-31T11:33:03.805Z,29.95
2018-05-31T11:35:29.543Z,30.54
2018-05-31T11:37:55.277Z,30.95
2018-05-31T11:40:21.003Z,31.14
2018-05-31T11:42:46.729Z,30.88
2018-05-31T11:45:12.456Z,30.35
2018-05-31T11:47:38.184Z,30.51
2018-05-31T11:50:03.903Z,29.87
2018-05-31T11:52:29.624Z,29.46
2018-05-31T11:54:55.758Z,30.44
2018-05-31T11:57:21.496Z,30.59
2018-05-31T11:59:47.220Z,30.63
2018-05-31T12:02:12.945Z,30.26
2018-05-31T12:04:45.765Z,29.48
2018-05-31T12:07:11.491Z,30.01
2018-05-31T12:09:37.203Z,30.61
2018-05-31T12:12:02.939Z,31.26
2018-05-31T12:14:28.660Z,30.87
2018-05-31T12:16:54.380Z,30.60
2018-05-31T12:19:20.109Z,30.70
2018-05-31T12:21:45.854Z,30.06
2018-05-31T12:24:11.607Z,30.10
2018-05-31T12:26:37.342Z,30.33
2018-05-31T12:29:03.060Z,30.57
2018-05-31T12:31:28.779Z,30.39
2018-05-31T12:33:54.513Z,29.85
2018-05-31T12:36:20.237Z,29.90
2018-05-31T12:38:45.959Z,29.78
2018-05-31T12:41:11.700Z,30.63
2018-05-31T12:43:37.433Z,31.22
2018-05-31T12:46:03.160Z,30.43
2018-05-31T12:48:28.900Z,30.54
2018-05-31T12:50:54.645Z,31.05
2018-05-31T12:53:20.389Z,30.62
2018-05-31T12:55:46.104Z,31.31
2018-05-31T12:58:11.857Z,30.73
2018-05-31T13:00:37.571Z,29.66
2018-05-31T13:03:03.306Z,30.01
2018-05-31T13:05:29.033Z,29.88
2018-05-31T13:07:54.767Z,29.77
2018-05-31T13:10:20.493Z,29.96
2018-05-31T13:12:46.224Z,30.05
2018-05-31T13:15:11.959Z,30.87
2018-05-31T13:17:37.705Z,30.80
2018-05-31T13:20:03.451Z,30.45
2018-05-31T13:22:29.183Z,30.54
2018-05-31T13:24:54.900Z,30.87
2018-05-31T13:27:20.633Z,31.47
2018-05-31T13:29:46.360Z,30.82
2018-05-31T13:32:12.109Z,30.53
2018-05-31T13:34:37.841Z,30.74
2018-05-31T13:37:03.591Z,31.03
2018-05-31T13:39:29.327Z,30.30
2018-05-31T13:41:55.068Z,29.90
2018-05-31T13:44:20.809Z,29.21
2018-05-31T13:46:46.574Z,29.76
2018-05-31T13:49:12.296Z,30.48
2018-05-31T13:51:38.048Z,29.29
2018-05-31T13:54:03.802Z,29.58
2018-05-31T13:56:29.549Z,29.51
2018-05-31T13:58:55.297Z,29.85
2018-05-31T14:01:21.032Z,29.94
2018-05-31T14:03:46.798Z,29.72
2018-05-31T14:06:12.531Z,30.06
2018-05-31T14:08:38.268Z,29.76
2018-05-31T14:11:04.012Z,29.23
2018-05-31T14:13:29.757Z,29.35
2018-05-31T14:15:55.501Z,28.88
2018-05-31T14:18:21.248Z,29.38
2018-05-31T14:20:46.998Z,29.06
2018-05-31T14:23:12.752Z,29.36
2018-05-31T14:25:38.500Z,29.43
2018-05-31T14:28:04.261Z,29.36
2018-05-31T14:30:29.992Z,28.97
2018-05-31T14:32:55.734Z,28.77
2018-05-31T14:35:21.473Z,28.52
2018-05-31T14:37:47.228Z,28.71
2018-05-31T14:40:12.960Z,28.68
2018-05-31T14:42:38.695Z,28.65
2018-05-31T14:45:04.436Z,28.08
2018-05-31T14:47:30.184Z,28.29
2018-05-31T14:49:55.920Z,28.15
2018-05-31T14:52:21.661Z,27.83
2018-05-31T14:54:47.413Z,28.20
2018-05-31T14:57:13.139Z,28.29
2018-05-31T14:59:38.869Z,28.03
2018-05-31T15:02:04.621Z,27.67
2018-05-31T15:04:30.360Z,27.93
2018-05-31T15:06:56.088Z,27.61
2018-05-31T15:09:21.845Z,27.62
2018-05-31T15:11:47.582Z,27.62
2018-05-31T15:14:13.336Z,27.70
2018-05-31T15:16:39.060Z,27.56
2018-05-31T15:19:04.835Z,27.23
2018-05-31T15:21:30.580Z,27.43
2018-05-31T15:23:56.325Z,27.32
2018-05-31T15:26:22.060Z,27.16
2018-05-31T15:28:47.824Z,27.25
2018-05-31T15:31:13.560Z,27.29
2018-05-31T15:33:39.304Z,27.35
2018-05-31T15:36:05.090Z,27.18
2018-05-31T15:38:30.792Z,27.37
2018-05-31T15:40:56.524Z,27.39
2018-05-31T15:43:22.247Z,27.51
2018-05-31T15:45:47.988Z,27.23
2018-05-31T15:48:13.749Z,27.36
2018-05-31T15:50:39.488Z,27.35
2018-05-31T15:53:05.232Z,26.81
2018-05-31T15:55:30.989Z,27.34
2018-05-31T15:57:56.731Z,26.95
2018-05-31T16:00:22.471Z,26.92
2018-05-31T16:02:48.232Z,26.95
2018-05-31T16:05:13.959Z,26.73
2018-05-31T16:07:39.688Z,26.95
2018-05-31T16:10:05.429Z,26.46
2018-05-31T16:12:31.155Z,26.57
2018-05-31T16:14:56.884Z,27.33
2018-05-31T16:17:22.633Z,27.16
2018-05-31T16:19:48.389Z,26.58
2018-05-31T16:22:14.116Z,26.86
2018-05-31T16:24:39.849Z,26.55
2018-05-31T16:27:05.597Z,26.70
2018-05-31T16:29:31.353Z,26.45
2018-05-31T16:31:57.084Z,26.55
2018-05-31T16:34:22.832Z,26.38
2018-05-31T16:36:48.557Z,25.73
2018-05-31T16:39:14.302Z,25.73
2018-05-31T16:41:40.032Z,25.80
2018-05-31T16:44:05.791Z,25.94
2018-05-31T16:46:31.528Z,25.57
2018-05-31T16:48:57.284Z,25.84
2018-05-31T16:51:23.022Z,26.19
2018-05-31T16:53:48.768Z,25.92
2018-05-31T16:56:14.507Z,25.81
2018-05-31T16:58:40.257Z,25.61
2018-05-31T17:01:06.000Z,25.74
2018-05-31T17:03:31.742Z,25.56
2018-05-31T17:05:57.473Z,25.63
2018-05-31T17:08:23.224Z,25.68
2018-05-31T17:10:48.958Z,25.65
2018-05-31T17:13:14.693Z,25.40
2018-05-31T17:15:40.449Z,24.97
2018-05-31T17:18:06.193Z,25.25
2018-05-31T17:20:31.951Z,25.26
2018-05-31T17:22:57.685Z,24.98
2018-05-31T17:25:23.436Z,25.12
2018-05-31T17:27:49.178Z,24.67
2018-05-31T17:30:14.920Z,24.29
2018-05-31T17:32:40.648Z,24.25
2018-05-31T17:35:06.384Z,24.52
2018-05-31T17:37:32.124Z,24.32
2018-05-31T17:39:57.864Z,24.20
2018-05-31T17:42:23.646Z,24.14
2018-05-31T17:44:49.383Z,23.87
2018-05-31T17:47:15.131Z,23.78
2018-05-31T17:49:40.877Z,24.05
2018-05-31T17:52:06.611Z,23.71
2018-05-31T17:54:32.722Z,23.65
2018-05-31T17:56:58.473Z,23.59
2018-05-31T17:59:24.207Z,23.77
2018-05-31T18:01:49.969Z,23.74
2018-05-31T18:04:15.700Z,23.21
2018-05-31T18:06:41.505Z,23.04
2018-05-31T18:09:07.262Z,23.02
2018-05-31T18:11:33.014Z,23.11
2018-05-31T18:13:58.770Z,22.86
2018-05-31T18:16:24.505Z,22.86
2018-05-31T18:18:50.241Z,22.73
2018-05-31T18:21:15.995Z,22.71
2018-05-31T18:23:41.736Z,22.56
2018-05-31T18:26:07.484Z,22.67
2018-05-31T18:28:33.243Z,22.36
2018-05-31T18:30:58.989Z,22.45
2018-05-31T18:33:24.720Z,22.26
2018-05-31T18:35:50.476Z,22.17
2018-05-31T18:38:16.199Z,21.99
2018-05-31T18:40:41.942Z,22.21
2018-05-31T18:43:07.682Z,21.94
2018-05-31T18:45:33.432Z,21.78
2018-05-31T18:47:59.166Z,21.81
2018-05-31T18:50:24.919Z,21.89
2018-05-31T18:52:50.654Z,21.71
2018-05-31T18:55:16.396Z,21.61
2018-05-31T18:57:42.141Z,21.75
2018-05-31T19:00:07.896Z,21.50
2018-05-31T19:02:33.632Z,21.47
2018-05-31T19:04:59.414Z,21.38
2018-05-31T19:07:25.160Z,21.18
2018-05-31T19:09:50.891Z,21.21
2018-05-31T19:12:16.641Z,21.17
2018-05-31T19:14:42.380Z,21.05
2018-05-31T19:17:08.108Z,21.02
2018-05-31T19:19:39.891Z,20.95
2018-05-31T19:22:05.618Z,20.97
2018-05-31T19:24:37.495Z,20.62
2018-05-31T19:27:03.215Z,20.58
2018-05-31T19:29:28.950Z,20.54
2018-05-31T19:31:54.696Z,20.52
2018-05-31T19:34:20.435Z,20.35
2018-05-31T19:36:52.268Z,20.28
2018-05-31T19:39:17.995Z,20.34
2018-05-31T19:41:43.732Z,20.18
2018-05-31T19:44:15.488Z,20.20
2018-05-31T19:46:41.225Z,20.14
2018-05-31T19:49:06.956Z,19.96
2018-05-31T19:51:38.956Z,20.03
2018-05-31T19:54:04.722Z,20.03
2018-05-31T19:56:30.449Z,19.77
2018-05-31T20:12:21.258Z,19.59
2018-05-31T20:14:46.029Z,19.60
2018-05-31T20:17:11.768Z,19.63
2018-05-31T20:19:37.509Z,19.49
2018-05-31T20:22:03.249Z,19.41
2018-05-31T20:24:28.981Z,19.53
2018-05-31T20:26:54.719Z,19.30
2018-05-31T20:29:20.583Z,19.20
2018-05-31T20:31:46.575Z,19.14
2018-05-31T20:34:12.331Z,19.02
2018-05-31T20:36:38.117Z,18.96
2018-05-31T20:39:04.642Z,18.93
2018-05-31T20:41:30.399Z,18.84
2018-05-31T20:43:56.120Z,18.78
2018-05-31T20:46:21.865Z,18.78
2018-05-31T20:48:47.597Z,18.73
2018-05-31T20:51:13.396Z,18.62
2018-05-31T20:53:39.213Z,18.61
2018-05-31T20:56:04.948Z,18.62
2018-05-31T20:58:30.683Z,18.70
2018-05-31T21:00:56.433Z,18.55
2018-05-31T21:03:22.165Z,18.72
2018-05-31T21:05:47.916Z,18.67
2018-05-31T21:08:13.633Z,18.50
2018-05-31T21:10:39.380Z,18.48
2018-05-31T21:13:05.111Z,18.50
2018-05-31T21:15:30.865Z,18.42
2018-05-31T21:17:56.609Z,18.37
2018-05-31T21:20:22.349Z,18.41
2018-05-31T21:22:48.363Z,18.53
2018-05-31T21:25:14.065Z,18.49
2018-05-31T21:27:39.811Z,18.30
2018-05-31T21:30:05.555Z,18.27
2018-05-31T21:32:31.309Z,18.38
2018-05-31T21:34:57.046Z,18.33
2018-05-31T21:37:22.786Z,18.41
2018-05-31T21:39:48.515Z,18.30
2018-05-31T21:42:14.254Z,18.23
2018-05-31T21:44:39.981Z,18.25
2018-05-31T21:47:05.725Z,18.22
2018-05-31T21:49:31.453Z,18.20
2018-05-31T21:51:57.193Z,18.15
2018-05-31T21:54:23.009Z,18.09
2018-05-31T21:56:48.764Z,18.14
2018-05-31T21:59:14.496Z,18.12
2018-05-31T22:01:40.244Z,18.04
2018-05-31T22:04:05.976Z,18.08
2018-05-31T22:06:31.721Z,18.08
2018-05-31T22:08:57.463Z,18.07
2018-05-31T22:11:23.211Z,18.13
2018-05-31T22:13:49.071Z,18.11
2018-05-31T22:16:14.804Z,18.13
2018-05-31T22:18:40.555Z,18.19
2018-05-31T22:21:06.293Z,18.07
2018-05-31T22:23:32.037Z,18.09
2018-05-31T22:25:57.769Z,18.06
2018-05-31T22:28:23.503Z,18.01
2018-05-31T22:30:49.231Z,17.97
2018-05-31T22:33:14.977Z,17.98
2018-05-31T22:35:40.701Z,17.98
2018-05-31T22:38:06.441Z,17.99
2018-05-31T22:40:32.176Z,17.99
2018-05-31T22:42:57.923Z,17.88
2018-05-31T22:45:23.655Z,17.91
2018-05-31T22:47:49.400Z,17.96
2018-05-31T22:50:15.133Z,17.79
2018-05-31T22:52:40.877Z,17.68
2018-05-31T22:55:06.785Z,17.81
2018-05-31T22:57:32.521Z,17.77
2018-05-31T22:59:58.248Z,17.80
2018-05-31T23:02:23.992Z,17.77
2018-05-31T23:04:49.726Z,17.77
2018-05-31T23:07:15.460Z,17.73
2018-05-31T23:09:41.188Z,17.80
2018-05-31T23:12:06.924Z,17.70
2018-05-31T23:14:32.640Z,17.61
2018-05-31T23:16:59.027Z,17.63
2018-05-31T23:19:24.868Z,17.56
2018-05-31T23:21:50.633Z,17.54
2018-05-31T23:24:16.906Z,17.53
2018-05-31T23:26:42.632Z,17.48
2018-05-31T23:29:08.381Z,17.49
2018-05-31T23:31:34.271Z,17.44
2018-05-31T23:34:00.039Z,17.26
2018-05-31T23:36:25.861Z,17.21
2018-05-31T23:38:52.091Z,17.26
2018-05-31T23:41:18.163Z,17.23
2018-05-31T23:43:44.450Z,17.10
2018-05-31T23:46:10.528Z,17.03
2018-05-31T23:48:36.289Z,16.94
2018-05-31T23:51:02.243Z,16.86
2018-05-31T23:53:28.112Z,16.75
2018-05-31T23:55:53.862Z,16.64
2018-05-31T23:58:19.600Z,16.54
